Flight Track Log - Related Links

Times and Time Zones

All times are in EDT time to prevent confusion due to time zone crossing. See the FDX1482 flight status page for this flight to view local times or setup timezone preferences in your user account.

Time Position Orientation Groundspeed Altitude Reporting Facility
EDT Latitude Longitude Course Direction KTS MPH feet Rate Location/Type
Fri 05:03:26 AM 35.0333 -89.9667 180° South 164 189 1,300  Level KMEM
Fri 05:03:56 AM 35.0000 -89.9667 180° South 170 196 2,800 3,375 Climbing KMEM
Fri 05:05:02 AM 34.9333 -89.9500 168° South 245 282 6,700 3,357 Climbing KMEM
Fri 05:06:44 AM 34.9517 -89.7844 82° East 293 337 12,200 3,259 Climbing Memphis Center
Fri 05:07:44 AM 35.0075 -89.6675 60° Northeast 344 396 15,500 3,350 Climbing Memphis Center
Fri 05:08:44 AM 35.0631 -89.5403 62° Northeast 409 471 18,900 2,950 Climbing Memphis Center
Fri 05:09:44 AM 35.1164 -89.4178 62° Northeast 432 497 21,400 2,550 Climbing Memphis Center
Fri 05:10:44 AM 35.1800 -89.2772 61° Northeast 456 525 24,000 2,500 Climbing Memphis Center
Fri 05:11:44 AM 35.2411 -89.1317 63° Northeast 472 543 26,400 2,500 Climbing Memphis Center
Fri 05:12:44 AM 35.3000 -88.9756 65° Northeast 491 565 29,000 2,650 Climbing Memphis Center
Fri 05:13:44 AM 35.3567 -88.8269 65° Northeast 491 565 31,700 477 Climbing Memphis Center
Fri 05:19:17 AM 35.6650 -87.9690 65° Northeast 35,000 285 Climbing FlightAware ADS-B
Fri 05:20:07 AM 35.7100 -87.8410 67° East 35,000  Level FlightAware ADS-B
Fri 05:20:52 AM 35.7480 -87.7290 67° East 35,000  Level FlightAware ADS-B
Fri 05:21:32 AM 35.7800 -87.6350 67° East 35,000  Level FlightAware ADS-B
Fri 05:22:12 AM 35.8170 -87.5270 67° East 35,000  Level FlightAware ADS-B
Fri 05:22:57 AM 35.8560 -87.4120 67° East 35,000  Level FlightAware ADS-B
Fri 05:23:37 AM 35.8910 -87.3110 67° East 35,000  Level FlightAware ADS-B
Fri 05:24:22 AM 35.9280 -87.2000 68° East 35,000  Level FlightAware ADS-B
Fri 05:24:46 AM 35.9514 -87.1317 67° East 35,000  Level FlightAware ADS-B
Fri 05:25:18 AM 35.9785 -87.0524 67° East 463 533 35,000  Level FlightAware ADS-B
Fri 05:25:49 AM 36.0046 -86.9740 68° East 484 557 35,000  Level FlightAware ADS-B
Fri 05:26:19 AM 36.0300 -86.8979 68° East 487 560 35,000  Level FlightAware ADS-B
Fri 05:26:56 AM 36.0611 -86.8050 67° East 484 557 35,000  Level FlightAware ADS-B
Fri 05:27:27 AM 36.0875 -86.7261 67° East 470 541 35,000  Level FlightAware ADS-B
Fri 05:27:57 AM 36.1133 -86.6479 68° East 489 563 35,000  Level FlightAware ADS-B
Fri 05:28:27 AM 36.1387 -86.5716 68° East 471 542 35,000  Level FlightAware ADS-B
Fri 05:28:58 AM 36.1646 -86.4926 68° East 478 550 35,000  Level FlightAware ADS-B
Fri 05:29:29 AM 36.1907 -86.4138 68° East 475 547 35,000  Level FlightAware ADS-B
Fri 05:30:00 AM 36.2162 -86.3361 68° East 480 552 35,000  Level FlightAware ADS-B
Fri 05:30:30 AM 36.2418 -86.2579 68° East 487 560 35,000  Level FlightAware ADS-B
Fri 05:31:01 AM 36.2676 -86.1797 68° East 494 568 35,000  Level FlightAware ADS-B
Fri 05:31:32 AM 36.2938 -86.0988 68° East 483 556 35,000  Level FlightAware ADS-B
Fri 05:32:17 AM 36.3310 -85.9860 68° East 35,000  Level FlightAware ADS-B
Fri 05:32:36 AM 36.3473 -85.9344 69° East 482 555 35,000  Level FlightAware ADS-B
Fri 05:33:08 AM 36.3740 -85.8518 68° East 484 557 35,000  Level FlightAware ADS-B
Fri 05:33:39 AM 36.3998 -85.7720 68° East 483 556 35,000  Level FlightAware ADS-B
Fri 05:34:11 AM 36.4259 -85.6910 68° East 481 554 35,000  Level FlightAware ADS-B
Fri 05:34:45 AM 36.4544 -85.6020 68° East 475 547 35,000  Level FlightAware ADS-B
Fri 05:35:16 AM 36.4803 -85.5209 68° East 492 566 35,000  Level FlightAware ADS-B
Fri 05:35:54 AM 36.5112 -85.4242 68° East 475 547 35,000  Level FlightAware ADS-B
Fri 05:36:25 AM 36.5364 -85.3442 69° East 481 554 35,000  Level FlightAware ADS-B
Fri 05:37:13 AM 36.5755 -85.2211 68° East 490 564 35,000  Level FlightAware ADS-B
Fri 05:37:44 AM 36.6003 -85.1430 68° East 480 552 35,000  Level FlightAware ADS-B
Fri 05:38:17 AM 36.6277 -85.0558 69° East 494 568 35,000  Level FlightAware ADS-B
Fri 05:38:48 AM 36.6519 -84.9786 69° East 485 558 35,000  Level FlightAware ADS-B
Fri 05:39:23 AM 36.6804 -84.8872 69° East 474 545 35,000  Level FlightAware ADS-B
Fri 05:39:58 AM 36.7084 -84.7980 69° East 486 559 35,000  Level FlightAware ADS-B
Fri 05:40:29 AM 36.7338 -84.7164 69° East 485 558 35,000  Level FlightAware ADS-B
Fri 05:40:59 AM 36.7579 -84.6387 69° East 479 551 35,000  Level FlightAware ADS-B
Fri 05:41:30 AM 36.7822 -84.5594 69° East 482 555 35,000  Level FlightAware ADS-B
Fri 05:42:00 AM 36.8068 -84.4802 69° East 481 554 35,000  Level FlightAware ADS-B
Fri 05:42:30 AM 36.8307 -84.4026 69° East 473 544 35,000  Level FlightAware ADS-B
Fri 05:43:00 AM 36.8543 -84.3252 69° East 478 550 35,000  Level FlightAware ADS-B
Fri 05:43:31 AM 36.8789 -84.2453 69° East 493 567 35,000  Level FlightAware ADS-B
Fri 05:44:02 AM 36.9029 -84.1663 69° East 475 547 35,000  Level FlightAware ADS-B
Fri 05:44:32 AM 36.9271 -84.0873 69° East 489 563 35,000  Level FlightAware ADS-B
Fri 05:45:02 AM 36.9506 -84.0094 69° East 479 551 35,000  Level FlightAware ADS-B
Fri 05:45:32 AM 36.9742 -83.9315 69° East 494 568 35,000  Level FlightAware ADS-B
Fri 05:47:27 AM 37.0641 -83.6317 69° East 471 542 35,000  Level FlightAware ADS-B
Fri 05:47:57 AM 37.0876 -83.5531 69° East 480 552 35,000  Level FlightAware ADS-B
Fri 05:53:15 AM 37.3336 -82.7154 70° East 486 559 35,000  Level FlightAware ADS-B
Fri 05:55:32 AM 37.4373 -82.3542 70° East 486 559 35,000  Level FlightAware ADS-B
Fri 05:56:03 AM 37.4606 -82.2721 70° East 475 547 35,000  Level FlightAware ADS-B
Fri 05:56:33 AM 37.4834 -82.1915 70° East 465 535 35,000  Level FlightAware ADS-B
Fri 05:57:06 AM 37.5078 -82.1055 70° East 488 562 35,000  Level FlightAware ADS-B
Fri 05:57:36 AM 37.5307 -82.0248 70° East 487 560 35,000  Level FlightAware ADS-B
Fri 05:58:08 AM 37.5545 -81.9398 71° East 471 542 35,000  Level FlightAware ADS-B
Fri 05:58:40 AM 37.5780 -81.8559 71° East 480 552 35,000  Level FlightAware ADS-B
Fri 05:59:10 AM 37.6007 -81.7747 71° East 497 572 35,000  Level FlightAware ADS-B
Fri 05:59:40 AM 37.6230 -81.6947 71° East 475 547 35,000  Level FlightAware ADS-B
Fri 06:00:12 AM 37.6464 -81.6104 71° East 500 575 35,000  Level FlightAware ADS-B
Fri 06:00:42 AM 37.6691 -81.5287 71° East 477 549 35,000  Level FlightAware ADS-B
Fri 06:01:13 AM 37.6918 -81.4456 71° East 481 554 35,000  Level FlightAware ADS-B
Fri 06:01:44 AM 37.7147 -81.3627 71° East 486 559 35,000  Level FlightAware ADS-B
Fri 06:02:17 AM 37.7387 -81.2755 71° East 492 566 35,000  Level FlightAware ADS-B
Fri 06:02:52 AM 37.7640 -81.1840 71° East 35,000  Level FlightAware ADS-B
Fri 06:03:04 AM 37.7724 -81.1493 73° East 481 554 35,000  Level FlightAware ADS-B
Fri 06:03:45 AM 37.7914 -81.0331 78° East 489 563 35,000  Level FlightAware ADS-B
Fri 06:04:17 AM 37.8000 -80.9550 82° East 35,000  Level FlightAware ADS-B
Fri 06:04:56 AM 37.8237 -80.8388 75° East 483 556 35,000  Level FlightAware ADS-B
Fri 06:05:29 AM 37.8491 -80.7514 70° East 482 555 35,000  Level FlightAware ADS-B
Fri 06:06:00 AM 37.8728 -80.6709 70° East 481 554 35,000 -888 Level FlightAware ADS-B
Fri 06:07:02 AM 37.9200 -80.5080 70° East 35,000 -901 Level FlightAware ADS-B
Fri 06:07:47 AM 37.9530 -80.3930 70° East 35,000 -926 Level FlightAware ADS-B
Fri 06:12:47 AM 38.1750 -79.6020 70° East 35,000 -946 Level FlightAware ADS-B
Fri 06:13:07 AM 38.1900 -79.5500 70° East 35,000 -1,101 Level FlightAware ADS-B
Fri 06:14:17 AM 38.2370 -79.3650 72° East 35,000 -1,114 Level FlightAware ADS-B
Fri 06:20:07 AM 38.4600 -78.4860 72° East 23,900 -1,159 Descending FlightAware ADS-B
Fri 06:20:52 AM 38.4960 -78.3630 69° East 22,500 -970 Descending FlightAware ADS-B
Fri 06:21:27 AM 38.5210 -78.2800 69° East 21,500 -940 Descending FlightAware ADS-B
Fri 06:22:12 AM 38.5500 -78.1780 70° East 20,300 -920 Descending FlightAware ADS-B
Fri 06:22:57 AM 38.5850 -78.0580 70° East 19,100 -895 Descending FlightAware ADS-B
Fri 06:23:37 AM 38.6100 -77.9720 70° East 19,000 -869 Descending FlightAware ADS-B
Fri 06:24:17 AM 38.6370 -77.8790 70° East 19,000 -894 Level FlightAware ADS-B
Fri 06:25:02 AM 38.6470 -77.7740 83° East 19,000 -925 Level FlightAware ADS-B
Fri 06:25:42 AM 38.6520 -77.6780 86° East 18,100 -963 Descending FlightAware ADS-B
Fri 06:26:27 AM 38.6590 -77.5660 85° East 17,000 -949 Descending FlightAware ADS-B
Fri 06:27:07 AM 38.6650 -77.4680 85° East 16,300 -925 Descending FlightAware ADS-B
Fri 06:27:47 AM 38.6700 -77.3720 86° East 15,600 -920 Descending FlightAware ADS-B
Fri 06:28:32 AM 38.6760 -77.2710 86° East 14,900 -915 Descending FlightAware ADS-B
Fri 06:29:12 AM 38.6810 -77.1900 85° East 13,800 -914 Descending FlightAware ADS-B
Fri 06:29:57 AM 38.6860 -77.0940 86° East 12,600 -879 Descending FlightAware ADS-B
Fri 06:30:37 AM 38.6910 -77.0140 85° East 11,500 -838 Descending FlightAware ADS-B
Fri 06:31:17 AM 38.6950 -76.9470 86° East 10,800 -795 Descending FlightAware ADS-B
Fri 06:31:57 AM 38.6980 -76.8840 86° East 10,100 -780 Descending FlightAware ADS-B
Fri 06:32:17 AM 38.6990 -76.8540 88° East 9,800 -764 Descending FlightAware ADS-B
Fri 06:32:42 AM 38.7010 -76.8190 86° East 9,400 -760 Descending FlightAware ADS-B
Fri 06:33:07 AM 38.7040 -76.7700 85° East 8,900 -752 Descending FlightAware ADS-B
Fri 06:33:32 AM 38.7110 -76.7300 77° East 8,400 -734 Descending FlightAware ADS-B
Fri 06:33:52 AM 38.7230 -76.7040 59° Northeast 8,000 -714 Descending FlightAware ADS-B
Fri 06:34:22 AM 38.7380 -76.6690 61° Northeast 7,600 -696 Descending FlightAware ADS-B
Fri 06:34:47 AM 38.7560 -76.6280 61° Northeast 7,000 -691 Descending FlightAware ADS-B
Fri 06:35:27 AM 38.7790 -76.5760 60° Northeast 6,300 -653 Descending FlightAware ADS-B
Fri 06:35:42 AM 38.7890 -76.5540 60° Northeast 6,000 -619 Descending FlightAware ADS-B
Fri 06:35:57 AM 38.8030 -76.5370 43° Northeast 5,700 -600 Descending FlightAware ADS-B
Fri 06:36:12 AM 38.8210 -76.5290 19° North 5,500 -579 Descending FlightAware ADS-B
Fri 06:36:42 AM 38.8570 -76.5390 348° North 5,300 -571 Descending FlightAware ADS-B
Fri 06:37:07 AM 38.8880 -76.5530 341° North 5,100 -585 Descending FlightAware ADS-B
Fri 06:37:37 AM 38.9280 -76.5720 340° North 4,900 -592 Descending FlightAware ADS-B
Fri 06:38:02 AM 38.9580 -76.5870 339° North 4,700 -609 Descending FlightAware ADS-B
Fri 06:38:17 AM 38.9730 -76.6010 324° Northwest 4,600 -619 Descending FlightAware ADS-B
Fri 06:38:32 AM 38.9840 -76.6210 305° West 4,500 -631 Descending FlightAware ADS-B
Fri 06:39:02 AM 39.0030 -76.6650 299° West 4,300 -643 Descending FlightAware ADS-B
Fri 06:39:27 AM 39.0200 -76.7040 299° West 4,200 -672 Descending FlightAware ADS-B
Fri 06:39:57 AM 39.0380 -76.7450 299° West 3,800 -720 Descending FlightAware ADS-B
Fri 06:40:22 AM 39.0530 -76.7790 300° West 3,600 -708 Descending FlightAware ADS-B
Fri 06:40:52 AM 39.0740 -76.8140 308° West 3,400 -741 Descending FlightAware ADS-B
Fri 06:41:07 AM 39.0890 -76.8230 335° Northwest 3,100 -814 Descending FlightAware ADS-B
Fri 06:41:42 AM 39.1210 -76.8420 335° Northwest 2,400 -768 Descending FlightAware ADS-B
Fri 06:42:27 AM 39.1610 -76.8380 North 1,600 -600 Descending FlightAware ADS-B
Fri 06:43:12 AM 39.1833 -76.7833 North 181 208 1,500 -457 Descending Potomac TRACON
Fri 06:44:12 AM 39.1833 -76.7333 90° East 120 138 800 -700 Descending Potomac TRACON
Fri 06:46:00 AM 39.1667 -76.6667 North  Level FlightAware Approximate
Fri 06:53:00 AM 39.1754 -76.6683 North  Level Estimated
Fri 06:54:00 AM 39.1754 -76.6683 North  Level Estimated

Login

Don't have an account? Register now (free) for customized features, flight alerts, and more!